METAR AND TAF INFORMATION
METAR FOR LPPD
ADDS - METARS form results

(1821 UTC 21 March 2019)
Data provider http://aviationweather.gov/metar/data/
 
METAR text: LPPD 211800Z 18005KT 140V210 9999 FEW018 15/12 Q1026
Conditions at: LPPD (PONTA DELGADA/NO, PT) observed 1800 UTC 21 March 2019
Temperature: 15.0°C (59°F)
Dewpoint: 12.0°C (54°F) [RH = 82%]
Pressure (altimeter): 30.30 inches Hg (1026.0 mb)
Winds: from the S (180 degrees) at 6 MPH (5 knots; 2.6 m/s)
Visibility: 6 or more miles (10+ km)
Ceiling: at least 12,000 feet AGL
Clouds: few clouds at 1800 feet AGL
Weather: no significant weather observed at this time

METAR text: LPPD 211730Z 18006KT 150V220 9999 FEW018 15/11 Q1027
Conditions at: LPPD (PONTA DELGADA/NO, PT) observed 1730 UTC 21 March 2019
Temperature: 15.0°C (59°F)
Dewpoint: 11.0°C (52°F) [RH = 77%]
Pressure (altimeter): 30.32 inches Hg (1027.0 mb)
Winds: from the S (180 degrees) at 7 MPH (6 knots; 3.1 m/s)
Visibility: 6 or more miles (10+ km)
Ceiling: at least 12,000 feet AGL
Clouds: few clouds at 1800 feet AGL
Weather: no significant weather observed at this time

Forecast for: LPPD (PONTA DELGADA/NO, PT)
Text: TAF LPPD 211700Z 2118/2218 VRB05KT 9999 FEW015 BKN030
Forecast period: 1800 UTC 21 March 2019 to 1800 UTC 22 March 2019
Forecast type: FROM: standard forecast or significant change
Winds: variable direction winds at 6 MPH (5 knots; 2.6 m/s)
Visibility: 6 or more miles 10+ km)
Ceiling: 3000 feet AGL
Clouds: few clouds at 1500 feet AGL
broken clouds at 3000 feet AGL
Weather: no significant weather forecast for this period
Text: TEMPO 2118/2218 SCT015
Forecast period: 1800 UTC 21 March 2019 to 1800 UTC 22 March 2019
Forecast type: TEMPORARY: The following changes expected for less than half the time period
Visibility: missing
Ceiling: at least 12,000 feet AGL
Clouds: scattered clouds at 1500 feet AGL
Weather: no significant weather forecast for this period

 AIRPORT MAP

 RUNWAY INFORMATION
Runway 12 Runway length 8192 ft Runway width 148 ft
Runway elevation 259 ft Runway displaced threshold 0 ft Runway heading 112
Runway 30 Runway length 8192 ft Runway width 148 ft
Runway elevation 187 ft Runway displaced threshold 787 ft Runway heading 292

 AIRPORT FREQUENCIES
Type APP Name APP Frequency 119.4 MHZ
Type TWR Name TWR Frequency 118.3 MHZ

 AIRPORT NEAR NAVIGATION AIDS
Type NDB Name Ponta Delgada Frequency 371 KHZ
Type NDB Name Ponta Delgada Frequency 351 KHZ
Type VORTAC Name Sao Miguel Frequency 114500 KHZ



Powered by Virtual Airlines Manager [v2.6.2]